Time;durP1;ratioP1;P1;durP2;ratioP2;P2;SDS_P1;SDS_P2;PMS_P1;PMS_P2;Temp;Humidity;BMP_temperature;BMP_pressure;BME280_temperature;BME280_humidity;BME280_pressure;Samples;Min_cycle;Max_cycle;Signal;HPM_P1;HPM_P2
2021/06/06 00:00:20;;;;;;;5.63;4.90;;;19.00;99.90;;;;;;5066649;28;20413;-83
2021/06/06 00:02:46;;;;;;;9.03;5.20;;;19.00;99.90;;;;;;5048816;28;20171;-84
2021/06/06 00:05:13;;;;;;;6.43;5.30;;;19.00;99.90;;;;;;5114731;28;20439;-83
2021/06/06 00:07:39;;;;;;;5.50;5.00;;;19.00;99.90;;;;;;5114838;28;20456;-83
2021/06/06 00:10:07;;;;;;;7.70;5.53;;;19.00;99.90;;;;;;5133910;28;20509;-83
2021/06/06 00:12:33;;;;;;;6.07;5.57;;;19.10;99.90;;;;;;5114543;28;20231;-83
2021/06/06 00:15:00;;;;;;;6.07;5.47;;;19.00;99.90;;;;;;5115516;28;20403;-82
2021/06/06 00:17:25;;;;;;;6.60;6.00;;;18.90;99.90;;;;;;5115259;28;20396;-83
2021/06/06 00:19:51;;;;;;;6.77;6.17;;;18.80;99.90;;;;;;5132933;28;20388;-83
2021/06/06 00:22:18;;;;;;;10.33;5.90;;;18.90;99.90;;;;;;5114314;28;20171;-83
2021/06/06 00:24:44;;;;;;;5.80;5.30;;;18.70;99.90;;;;;;5115288;28;20555;-83
2021/06/06 00:27:10;;;;;;;6.23;5.73;;;18.50;99.90;;;;;;5114869;28;20442;-83
2021/06/06 00:29:36;;;;;;;8.07;5.70;;;18.40;99.90;;;;;;5132516;28;20185;-82
2021/06/06 00:32:03;;;;;;;7.50;6.80;;;18.40;99.90;;;;;;5132888;28;20452;-83
2021/06/06 00:34:32;;;;;;;7.20;6.50;;;18.50;99.90;;;;;;5132832;28;20396;-84
2021/06/06 00:36:57;;;;;;;6.63;6.00;;;18.60;99.90;;;;;;5073464;28;20805;-83
2021/06/06 00:39:23;;;;;;;9.50;6.73;;;18.70;99.90;;;;;;5073635;28;20418;-83
2021/06/06 00:41:51;;;;;;;6.23;5.73;;;18.60;99.90;;;;;;5090527;28;20186;-83
2021/06/06 00:44:18;;;;;;;7.17;5.40;;;18.60;99.90;;;;;;5073423;28;20198;-83
2021/06/06 00:46:44;;;;;;;6.17;5.57;;;18.30;99.90;;;;;;5072809;28;20441;-82
2021/06/06 00:49:10;;;;;;;7.37;6.70;;;18.10;99.90;;;;;;5089779;28;20504;-82
2021/06/06 00:51:50;;;;;;;7.20;6.43;;;18.00;99.90;;;;;;5090124;28;20440;-82
2021/06/06 00:54:23;;;;;;;6.23;5.73;;;17.90;99.90;;;;;;5089655;28;20385;-83
2021/06/06 00:56:53;;;;;;;7.77;6.97;;;17.90;99.90;;;;;;5090311;28;20406;-83
2021/06/06 00:59:24;;;;;;;10.97;6.67;;;17.80;99.90;;;;;;5090058;28;20392;-83
2021/06/06 01:01:50;;;;;;;6.70;6.10;;;17.70;99.90;;;;;;5099208;28;20400;-83
2021/06/06 01:04:16;;;;;;;6.77;6.17;;;17.70;99.90;;;;;;5132550;28;20488;-83
2021/06/06 01:06:47;;;;;;;7.30;6.70;;;17.70;99.90;;;;;;5114137;28;20815;-84
2021/06/06 01:09:16;;;;;;;6.83;6.23;;;17.70;99.90;;;;;;5112893;28;20424;-83
2021/06/06 01:12:05;;;;;;;7.50;6.80;;;17.70;99.90;;;;;;5114728;28;20388;-83
2021/06/06 01:14:48;;;;;;;11.63;6.63;;;17.80;99.90;;;;;;5118170;28;20396;-83
2021/06/06 01:17:21;;;;;;;6.20;5.70;;;17.90;99.90;;;;;;5120195;28;20425;-84
2021/06/06 01:19:59;;;;;;;6.80;6.10;;;17.90;99.90;;;;;;5137309;28;20400;-83
2021/06/06 01:22:42;;;;;;;5.57;5.17;;;18.00;99.90;;;;;;5134538;28;20742;-83
2021/06/06 01:25:16;;;;;;;7.10;6.40;;;18.00;99.90;;;;;;5133599;28;20419;-83
2021/06/06 01:27:48;;;;;;;8.03;6.60;;;18.20;99.90;;;;;;5116020;28;20407;-83
2021/06/06 01:30:22;;;;;;;8.97;6.70;;;18.40;99.90;;;;;;5098889;28;20395;-83
2021/06/06 01:33:03;;;;;;;7.50;6.80;;;18.60;99.90;;;;;;5134258;28;20430;-83
2021/06/06 01:35:35;;;;;;;8.93;7.07;;;18.70;99.90;;;;;;5134202;28;20392;-83
2021/06/06 01:38:09;;;;;;;7.80;7.10;;;18.80;99.90;;;;;;5133713;28;20384;-83
2021/06/06 01:40:38;;;;;;;6.23;5.67;;;18.90;99.90;;;;;;5133127;28;20392;-83
2021/06/06 01:43:09;;;;;;;9.00;5.80;;;18.90;99.90;;;;;;5133902;28;20408;-81
2021/06/06 01:45:43;;;;;;;7.70;6.30;;;18.90;99.90;;;;;;5133153;28;20434;-83
2021/06/06 01:48:12;;;;;;;8.50;6.73;;;18.90;99.90;;;;;;5132610;28;20443;-83
2021/06/06 01:50:44;;;;;;;7.73;6.80;;;18.90;99.90;;;;;;5133483;28;20392;-83
2021/06/06 01:53:12;;;;;;;8.43;7.10;;;18.90;99.90;;;;;;5135370;28;20403;-82
2021/06/06 01:55:44;;;;;;;7.87;7.17;;;19.00;99.90;;;;;;5135484;28;20404;-83
2021/06/06 01:58:12;;;;;;;11.90;7.93;;;19.00;99.90;;;;;;5135562;28;20376;-82
2021/06/06 02:00:47;;;;;;;8.07;7.33;;;19.00;99.90;;;;;;5115734;28;20384;-83
2021/06/06 02:03:14;;;;;;;8.13;7.43;;;19.00;99.90;;;;;;5132988;28;20426;-83
2021/06/06 02:05:40;;;;;;;12.47;8.90;;;19.10;99.90;;;;;;5133294;28;20467;-83
2021/06/06 02:08:11;;;;;;;8.60;7.73;;;18.90;99.90;;;;;;5131334;28;20423;-81
2021/06/06 02:10:44;;;;;;;9.87;8.17;;;18.90;99.90;;;;;;5111758;28;20431;-81
2021/06/06 02:13:19;;;;;;;10.10;8.37;;;19.00;99.90;;;;;;5133179;28;20385;-81
2021/06/06 02:15:49;;;;;;;7.80;7.10;;;19.00;99.90;;;;;;5133960;28;20387;-81
2021/06/06 02:18:15;;;;;;;10.70;9.70;;;19.00;99.90;;;;;;5114367;28;20383;-79
2021/06/06 02:20:44;;;;;;;9.20;8.03;;;19.00;99.90;;;;;;5130989;28;20392;-84
2021/06/06 02:23:14;;;;;;;9.30;8.50;;;19.10;99.90;;;;;;5113321;28;20884;-82
2021/06/06 02:25:40;;;;;;;9.40;8.50;;;19.10;99.90;;;;;;5130604;28;21019;-84
2021/06/06 02:28:21;;;;;;;8.97;8.10;;;19.10;99.90;;;;;;5129741;28;20423;-84
2021/06/06 02:31:12;;;;;;;9.77;8.80;;;19.10;99.90;;;;;;5113475;28;20388;-83
2021/06/06 02:33:48;;;;;;;12.20;8.37;;;19.10;99.90;;;;;;5129909;28;20410;-81
2021/06/06 02:36:17;;;;;;;9.00;7.90;;;19.10;99.90;;;;;;5129581;28;20902;-81
2021/06/06 02:39:02;;;;;;;12.90;9.10;;;19.10;99.90;;;;;;5134682;27;20447;-83
2021/06/06 02:41:33;;;;;;;9.60;8.60;;;19.10;99.90;;;;;;5137768;28;20402;-83
2021/06/06 02:44:09;;;;;;;9.60;7.83;;;19.10;99.90;;;;;;5132461;28;20388;-80
2021/06/06 02:46:37;;;;;;;9.80;8.87;;;19.10;99.90;;;;;;5115083;28;20970;-84
2021/06/06 02:49:11;;;;;;;10.20;9.23;;;19.10;99.90;;;;;;5110031;28;20404;-84
2021/06/06 02:51:45;;;;;;;11.37;9.73;;;19.00;99.90;;;;;;5095147;28;20472;-84
2021/06/06 02:54:18;;;;;;;9.63;8.83;;;19.00;99.90;;;;;;5095141;28;20377;-83
2021/06/06 02:56:50;;;;;;;13.00;9.13;;;19.10;99.90;;;;;;5112182;28;20393;-84
2021/06/06 02:59:23;;;;;;;10.17;9.27;;;19.00;99.90;;;;;;5093283;28;20468;-84
2021/06/06 03:01:56;;;;;;;11.03;9.93;;;19.00;99.90;;;;;;5077000;28;20405;-84
2021/06/06 03:04:25;;;;;;;20.17;10.07;;;18.90;99.90;;;;;;5094271;28;20385;-84
2021/06/06 03:07:04;;;;;;;11.23;10.10;;;19.00;99.90;;;;;;5112416;28;20459;-83
2021/06/06 03:09:30;;;;;;;11.83;10.63;;;19.00;99.90;;;;;;5113853;28;20423;-82
2021/06/06 03:12:01;;;;;;;9.27;8.30;;;19.00;99.90;;;;;;5096430;28;20396;-84
2021/06/06 03:14:30;;;;;;;11.97;10.77;;;19.00;99.90;;;;;;5112455;28;20757;-84
2021/06/06 03:17:01;;;;;;;12.53;9.00;;;19.00;99.90;;;;;;5109905;28;20399;-84
2021/06/06 03:19:30;;;;;;;10.83;9.73;;;19.00;99.90;;;;;;5093592;28;20746;-84
2021/06/06 03:21:57;;;;;;;12.10;9.70;;;18.90;99.90;;;;;;5094348;28;20470;-84
2021/06/06 03:24:32;;;;;;;11.70;9.33;;;19.00;99.90;;;;;;5109712;28;20881;-84
2021/06/06 03:27:00;;;;;;;9.90;9.00;;;19.00;99.90;;;;;;5110624;28;20416;-83
2021/06/06 03:29:31;;;;;;;11.10;10.00;;;19.00;99.90;;;;;;5094110;28;20400;-83
2021/06/06 03:32:03;;;;;;;11.40;10.03;;;18.90;99.90;;;;;;5111748;28;20718;-84
2021/06/06 03:34:30;;;;;;;11.43;9.57;;;19.00;99.90;;;;;;5115110;28;20387;-83
2021/06/06 03:36:56;;;;;;;8.93;7.70;;;19.00;99.90;;;;;;5114489;28;20392;-83
2021/06/06 03:39:28;;;;;;;11.83;9.30;;;19.00;99.90;;;;;;5115579;28;20433;-83
2021/06/06 03:41:57;;;;;;;15.90;10.00;;;19.00;99.90;;;;;;5116175;28;20858;-84
2021/06/06 03:44:23;;;;;;;11.10;10.07;;;19.00;99.90;;;;;;5116516;28;20392;-84
2021/06/06 03:46:50;;;;;;;9.80;8.80;;;19.00;99.90;;;;;;5099605;28;20475;-83
2021/06/06 03:49:17;;;;;;;11.47;10.30;;;19.00;99.90;;;;;;5139368;28;20418;-84
2021/06/06 03:51:43;;;;;;;11.40;9.67;;;19.00;99.90;;;;;;5143060;27;20400;-84
2021/06/06 03:54:11;;;;;;;11.00;8.30;;;19.00;99.90;;;;;;5142721;27;20419;-83
2021/06/06 03:56:38;;;;;;;10.83;9.73;;;19.00;99.90;;;;;;5142786;27;20393;-84
2021/06/06 03:59:05;;;;;;;11.27;10.13;;;19.00;99.90;;;;;;5142140;27;20414;-82
2021/06/06 04:01:31;;;;;;;9.77;8.77;;;19.10;99.90;;;;;;5137502;27;20407;-83
2021/06/06 04:03:57;;;;;;;12.87;10.70;;;19.00;99.90;;;;;;5134821;28;20392;-84
2021/06/06 04:06:23;;;;;;;10.30;9.40;;;19.00;99.90;;;;;;5134641;28;20197;-84
2021/06/06 04:08:50;;;;;;;10.27;8.00;;;19.00;99.90;;;;;;5134367;28;20420;-84
2021/06/06 04:11:16;;;;;;;9.50;8.50;;;19.10;99.90;;;;;;5133802;28;20392;-84
2021/06/06 04:13:42;;;;;;;11.90;9.10;;;19.10;99.90;;;;;;5133232;28;20425;-84
2021/06/06 04:16:08;;;;;;;12.93;10.00;;;19.10;99.90;;;;;;5133681;28;20162;-84
2021/06/06 04:18:34;;;;;;;11.27;8.73;;;19.10;99.90;;;;;;5133988;28;20164;-83
2021/06/06 04:21:04;;;;;;;9.70;8.73;;;19.10;99.90;;;;;;5115883;28;20242;-84
2021/06/06 04:23:30;;;;;;;11.23;10.17;;;19.10;99.90;;;;;;5133545;28;20452;-84
2021/06/06 04:25:56;;;;;;;14.03;9.67;;;19.10;99.90;;;;;;5134747;28;20434;-83
2021/06/06 04:28:24;;;;;;;8.83;7.97;;;19.10;99.90;;;;;;5135254;28;20191;-84
2021/06/06 04:30:51;;;;;;;11.37;7.90;;;19.10;99.90;;;;;;5136899;28;20390;-83
2021/06/06 04:33:17;;;;;;;7.80;7.00;;;19.10;99.90;;;;;;5136652;28;20755;-82
2021/06/06 04:35:44;;;;;;;7.00;6.40;;;19.10;99.90;;;;;;5137438;28;20472;-84
2021/06/06 04:38:13;;;;;;;10.97;6.70;;;19.10;99.90;;;;;;5134426;28;20459;-84
2021/06/06 04:40:40;;;;;;;8.03;7.23;;;19.10;99.90;;;;;;5134536;28;20426;-84
2021/06/06 04:43:06;;;;;;;6.93;6.30;;;19.10;99.90;;;;;;5134663;28;20421;-83
2021/06/06 04:45:33;;;;;;;7.33;6.63;;;19.20;99.90;;;;;;5133917;28;20431;-84
2021/06/06 04:48:12;;;;;;;6.93;6.33;;;19.20;99.90;;;;;;5134328;28;20857;-84
2021/06/06 04:50:39;;;;;;;8.40;6.50;;;19.20;99.90;;;;;;5123969;27;20420;-82
2021/06/06 04:53:05;;;;;;;7.30;5.93;;;19.10;99.90;;;;;;5142280;27;20400;-83
2021/06/06 04:55:31;;;;;;;6.97;6.30;;;19.20;99.90;;;;;;5142282;27;20408;-82
2021/06/06 04:57:56;;;;;;;6.57;5.97;;;19.20;99.90;;;;;;5141298;27;20419;-84
2021/06/06 05:00:25;;;;;;;7.63;6.83;;;19.20;99.90;;;;;;5117691;28;20209;-83
2021/06/06 05:02:52;;;;;;;7.37;6.60;;;19.20;99.90;;;;;;5135246;28;20168;-83
2021/06/06 05:05:19;;;;;;;10.00;6.00;;;19.20;99.90;;;;;;5134068;28;20419;-83
2021/06/06 05:07:52;;;;;;;5.70;5.20;;;19.20;99.90;;;;;;5133930;28;20772;-83
2021/06/06 05:10:18;;;;;;;6.70;6.00;;;19.20;99.90;;;;;;5133846;28;20392;-84
2021/06/06 05:12:44;;;;;;;6.80;6.20;;;19.10;99.90;;;;;;5115251;28;20384;-83
2021/06/06 05:15:10;;;;;;;7.77;6.40;;;19.10;99.90;;;;;;5133129;28;20416;-83
2021/06/06 05:17:36;;;;;;;9.23;6.37;;;19.20;99.90;;;;;;5133611;28;20165;-83
2021/06/06 05:20:05;;;;;;;8.37;6.80;;;19.20;99.90;;;;;;5134376;28;20396;-84
2021/06/06 05:22:30;;;;;;;8.87;7.53;;;19.20;99.90;;;;;;5134161;28;20391;-83
2021/06/06 05:24:56;;;;;;;11.27;7.90;;;19.30;99.90;;;;;;5132822;28;20396;-83
2021/06/06 05:27:22;;;;;;;10.03;8.37;;;19.30;99.90;;;;;;5131894;28;20197;-83
2021/06/06 05:29:50;;;;;;;8.67;7.77;;;19.30;99.90;;;;;;5132320;28;20158;-82
2021/06/06 05:32:15;;;;;;;9.57;8.60;;;19.20;99.90;;;;;;5132012;28;20464;-83
2021/06/06 05:34:43;;;;;;;8.30;6.67;;;19.30;99.90;;;;;;5131962;28;20396;-83
2021/06/06 05:37:12;;;;;;;9.23;8.33;;;19.30;99.90;;;;;;5132376;28;20291;-83
2021/06/06 05:39:38;;;;;;;9.00;8.10;;;19.30;99.90;;;;;;5133657;28;20400;-83
2021/06/06 05:42:05;;;;;;;9.77;8.50;;;19.30;99.90;;;;;;5132206;28;20402;-82
2021/06/06 05:44:31;;;;;;;12.70;10.57;;;19.30;99.90;;;;;;5132143;28;20421;-82
2021/06/06 05:46:57;;;;;;;9.77;8.77;;;19.40;99.90;;;;;;5114067;28;20530;-83
2021/06/06 05:49:22;;;;;;;13.40;8.83;;;19.40;99.90;;;;;;5132485;28;20166;-83
2021/06/06 05:51:48;;;;;;;9.30;8.40;;;19.40;99.90;;;;;;5132171;28;20154;-83
2021/06/06 05:54:15;;;;;;;11.57;9.30;;;19.50;99.90;;;;;;5132161;28;20249;-83
2021/06/06 05:56:43;;;;;;;8.47;7.67;;;19.50;99.90;;;;;;5122754;28;20178;-83
2021/06/06 05:59:09;;;;;;;10.37;9.20;;;19.60;99.90;;;;;;5132125;28;20396;-83
2021/06/06 06:01:35;;;;;;;11.30;8.97;;;19.60;99.90;;;;;;5132686;28;20402;-83
2021/06/06 06:04:01;;;;;;;11.87;10.60;;;19.60;99.90;;;;;;5133368;28;20162;-83
2021/06/06 06:06:27;;;;;;;10.77;9.67;;;19.60;99.90;;;;;;5134322;28;20190;-83
2021/06/06 06:08:54;;;;;;;13.00;9.63;;;19.70;99.90;;;;;;5132414;28;20193;-83
2021/06/06 06:11:21;;;;;;;9.33;8.27;;;19.70;99.90;;;;;;5115766;28;20154;-82
2021/06/06 06:13:48;;;;;;;10.50;9.17;;;19.80;99.90;;;;;;5138639;27;20411;-81
2021/06/06 06:16:17;;;;;;;9.83;8.93;;;19.80;99.90;;;;;;5134541;28;20395;-83
2021/06/06 06:18:43;;;;;;;11.97;9.07;;;19.90;99.90;;;;;;5132297;28;20392;-83
2021/06/06 06:21:13;;;;;;;9.90;8.17;;;19.90;99.90;;;;;;5131061;28;20396;-83
2021/06/06 06:23:39;;;;;;;10.30;8.80;;;20.00;99.90;;;;;;5132926;28;20460;-83
2021/06/06 06:26:05;;;;;;;10.20;9.17;;;19.90;99.90;;;;;;5139450;27;20423;-83
2021/06/06 06:28:32;;;;;;;13.27;9.50;;;20.00;99.90;;;;;;5140027;27;20426;-83
2021/06/06 06:30:58;;;;;;;13.93;10.87;;;20.00;99.90;;;;;;5137390;27;20412;-82
2021/06/06 06:33:24;;;;;;;10.93;8.80;;;20.00;99.90;;;;;;5135311;27;20460;-81
2021/06/06 06:35:50;;;;;;;9.60;8.60;;;20.00;99.90;;;;;;5139617;27;20437;-83
2021/06/06 06:38:16;;;;;;;9.00;8.13;;;20.00;99.90;;;;;;5121956;28;20162;-83
2021/06/06 06:40:43;;;;;;;8.93;8.13;;;20.00;99.90;;;;;;5135180;28;20475;-82
2021/06/06 06:43:10;;;;;;;9.57;8.27;;;20.00;99.90;;;;;;5131352;28;20412;-83
2021/06/06 06:45:39;;;;;;;11.53;8.70;;;20.00;99.90;;;;;;5080017;28;20469;-82
2021/06/06 06:48:09;;;;;;;10.37;9.40;;;20.00;99.90;;;;;;5131856;28;20488;-83
2021/06/06 06:50:36;;;;;;;9.43;7.70;;;20.00;99.90;;;;;;5130701;28;20393;-83
2021/06/06 06:53:03;;;;;;;10.20;7.80;;;19.40;99.90;;;;;;5130570;28;20426;-83
2021/06/06 06:55:32;;;;;;;9.30;8.40;;;19.30;99.90;;;;;;5111577;28;20384;-82
2021/06/06 06:58:00;;;;;;;11.60;8.80;;;19.70;99.90;;;;;;5076981;28;20408;-82
2021/06/06 07:00:35;;;;;;;9.20;8.40;;;19.70;99.90;;;;;;5130016;28;20449;-83
2021/06/06 07:03:02;;;;;;;10.07;9.03;;;20.00;99.90;;;;;;5129722;28;20392;-82
2021/06/06 07:05:28;;;;;;;10.07;9.13;;;20.10;99.90;;;;;;5112361;28;20443;-83
2021/06/06 07:07:54;;;;;;;9.53;8.53;;;20.20;99.90;;;;;;5129556;28;20907;-83
2021/06/06 07:10:23;;;;;;;9.47;8.53;;;20.30;99.90;;;;;;5129627;28;20396;-83
2021/06/06 07:12:49;;;;;;;10.00;8.37;;;20.40;99.90;;;;;;5129626;28;20521;-82
2021/06/06 07:15:16;;;;;;;10.37;9.03;;;20.50;99.90;;;;;;5129482;28;20467;-83
2021/06/06 07:17:43;;;;;;;9.53;7.43;;;20.60;99.90;;;;;;5111261;28;20524;-82
2021/06/06 07:20:11;;;;;;;9.37;8.47;;;20.70;99.90;;;;;;5129487;28;20459;-83
2021/06/06 07:22:38;;;;;;;8.67;7.77;;;20.60;99.90;;;;;;5129680;28;20402;-83
2021/06/06 07:25:24;;;;;;;9.17;8.00;;;20.70;99.90;;;;;;5129749;28;20396;-83
2021/06/06 07:27:53;;;;;;;8.30;7.50;;;20.70;99.90;;;;;;5025436;28;20466;-83
2021/06/06 07:30:31;;;;;;;7.97;7.17;;;20.80;99.90;;;;;;5017962;28;20411;-82
2021/06/06 07:32:58;;;;;;;7.90;7.20;;;20.90;99.90;;;;;;5035002;28;20482;-82
2021/06/06 07:35:26;;;;;;;9.40;7.77;;;20.90;99.90;;;;;;5067202;28;20422;-82
2021/06/06 07:37:53;;;;;;;8.87;7.90;;;20.70;99.90;;;;;;5050217;28;20517;-84
2021/06/06 07:40:20;;;;;;;7.70;7.00;;;20.70;99.90;;;;;;5050362;28;20437;-83
2021/06/06 07:42:45;;;;;;;9.60;8.63;;;20.70;99.90;;;;;;5067337;28;20414;-83
2021/06/06 07:45:14;;;;;;;10.10;8.10;;;20.50;99.90;;;;;;5067542;28;20406;-82
2021/06/06 07:47:42;;;;;;;10.00;9.10;;;20.40;99.90;;;;;;5050363;28;20207;-82
2021/06/06 07:50:11;;;;;;;9.27;8.23;;;20.60;99.90;;;;;;5068062;28;20454;-82
2021/06/06 07:52:37;;;;;;;8.13;7.03;;;20.70;99.90;;;;;;5067241;28;20880;-84
2021/06/06 07:55:06;;;;;;;9.70;8.80;;;20.70;99.90;;;;;;5051069;28;20387;-83
2021/06/06 07:57:32;;;;;;;10.03;8.87;;;20.70;99.90;;;;;;5068353;28;20403;-82
2021/06/06 07:59:58;;;;;;;9.93;7.73;;;20.80;99.90;;;;;;5125798;28;20457;-83
2021/06/06 08:02:24;;;;;;;10.13;9.17;;;20.90;99.90;;;;;;5115855;28;20388;-84
2021/06/06 08:05:01;;;;;;;10.57;8.27;;;20.70;99.90;;;;;;5134233;28;20246;-83
2021/06/06 08:07:29;;;;;;;12.07;8.73;;;20.60;99.90;;;;;;5074010;28;20241;-83
2021/06/06 08:09:55;;;;;;;10.20;9.00;;;20.60;99.90;;;;;;5090407;28;20868;-83
2021/06/06 08:12:25;;;;;;;10.37;9.20;;;20.60;99.90;;;;;;5090013;28;20405;-83
2021/06/06 08:14:52;;;;;;;8.70;7.40;;;20.80;99.90;;;;;;5106879;28;20389;-83
2021/06/06 08:17:18;;;;;;;12.37;9.97;;;21.00;99.90;;;;;;5089916;28;20400;-83
2021/06/06 08:19:44;;;;;;;9.50;8.10;;;21.00;99.90;;;;;;5108184;28;20531;-84
2021/06/06 08:22:13;;;;;;;10.13;8.53;;;20.70;99.90;;;;;;5110942;28;20400;-83
2021/06/06 08:24:39;;;;;;;11.80;10.60;;;20.70;99.90;;;;;;5060101;28;20186;-84
2021/06/06 08:27:06;;;;;;;10.90;9.87;;;20.70;99.90;;;;;;5110075;28;20463;-83
2021/06/06 08:29:32;;;;;;;10.47;9.10;;;20.60;99.90;;;;;;5093386;28;20165;-82
2021/06/06 08:31:59;;;;;;;11.77;8.53;;;20.70;99.90;;;;;;5110593;28;20426;-83
2021/06/06 08:34:25;;;;;;;10.70;9.60;;;20.90;99.90;;;;;;5093622;28;20385;-83
2021/06/06 08:36:51;;;;;;;10.10;8.60;;;20.80;99.90;;;;;;5093302;28;20397;-83
2021/06/06 08:39:22;;;;;;;10.30;8.77;;;21.10;99.90;;;;;;5094881;28;20494;-84
2021/06/06 08:41:59;;;;;;;12.33;9.50;;;21.10;99.90;;;;;;5114911;28;20396;-84
2021/06/06 08:44:33;;;;;;;9.30;8.50;;;21.10;99.90;;;;;;5098047;28;20396;-81
2021/06/06 08:47:11;;;;;;;13.93;9.93;;;21.20;99.90;;;;;;5132353;28;20474;-82
2021/06/06 08:49:52;;;;;;;11.47;8.77;;;21.20;99.90;;;;;;5132020;28;20449;-82
2021/06/06 08:52:40;;;;;;;9.93;8.90;;;21.30;99.90;;;;;;5114485;28;20392;-84
2021/06/06 08:55:36;;;;;;;9.77;8.87;;;21.40;99.90;;;;;;5132399;28;20800;-83
2021/06/06 08:58:32;;;;;;;12.23;9.33;;;21.20;99.90;;;;;;5132488;28;20392;-83
2021/06/06 09:01:06;;;;;;;10.37;8.20;;;21.10;99.90;;;;;;5119685;28;20411;-84
2021/06/06 09:03:32;;;;;;;11.70;10.00;;;20.80;99.90;;;;;;5114925;28;20392;-84
2021/06/06 09:06:14;;;;;;;10.17;9.17;;;21.00;99.90;;;;;;5116292;28;20457;-84
2021/06/06 09:08:40;;;;;;;9.97;8.97;;;21.20;99.90;;;;;;5136263;28;20507;-83
2021/06/06 09:11:11;;;;;;;12.80;8.60;;;21.10;99.90;;;;;;5138979;28;20407;-80
2021/06/06 09:13:37;;;;;;;7.50;6.87;;;21.20;99.90;;;;;;5135117;28;20475;-80
2021/06/06 09:16:24;;;;;;;6.60;5.93;;;21.10;99.90;;;;;;5134560;28;20425;-83
2021/06/06 09:19:11;;;;;;;8.30;7.50;;;21.10;99.90;;;;;;5102273;28;20813;-81
2021/06/06 09:21:58;;;;;;;9.13;7.87;;;21.10;99.90;;;;;;5135826;28;20415;-84
2021/06/06 09:27:16;;;;;;;8.63;6.90;;;21.10;99.90;;;;;;5132877;28;20456;-84
2021/06/06 09:29:44;;;;;;;10.23;7.63;;;21.10;99.90;;;;;;5131238;28;20388;-84
2021/06/06 09:32:19;;;;;;;7.10;6.47;;;21.20;99.90;;;;;;5132412;28;20521;-84
2021/06/06 09:35:07;;;;;;;6.70;5.97;;;21.30;99.90;;;;;;5113786;28;20394;-84
2021/06/06 09:37:35;;;;;;;5.90;5.40;;;21.60;99.90;;;;;;5131895;28;20755;-84
2021/06/06 09:40:11;;;;;;;7.77;7.00;;;21.90;99.90;;;;;;5132294;28;20396;-84
2021/06/06 09:42:46;;;;;;;5.70;5.20;;;22.20;99.90;;;;;;5132374;28;20391;-82
2021/06/06 09:45:24;;;;;;;6.63;5.93;;;22.60;99.90;;;;;;5131489;28;20387;-82
2021/06/06 09:48:08;;;;;;;10.33;6.67;;;22.90;99.90;;;;;;5096644;28;20455;-83
2021/06/06 09:50:40;;;;;;;7.50;6.80;;;23.20;99.90;;;;;;5095043;28;20408;-82
2021/06/06 09:53:14;;;;;;;8.60;7.80;;;23.60;99.90;;;;;;5131704;28;20396;-82
2021/06/06 09:55:41;;;;;;;7.57;6.90;;;23.70;99.90;;;;;;5113293;28;20411;-83
2021/06/06 09:58:12;;;;;;;9.63;8.60;;;23.30;99.90;;;;;;5132391;28;20439;-83
2021/06/06 10:00:42;;;;;;;9.63;8.63;;;23.90;99.90;;;;;;5132365;28;20463;-83
2021/06/06 10:03:33;;;;;;;8.70;7.57;;;24.20;99.90;;;;;;5117082;28;20452;-83
2021/06/06 10:06:24;;;;;;;9.07;8.17;;;24.50;99.90;;;;;;5131685;28;20451;-83
2021/06/06 10:09:06;;;;;;;8.80;8.00;;;24.40;99.90;;;;;;5114756;28;20459;-84
2021/06/06 10:11:52;;;;;;;8.80;6.83;;;24.80;99.90;;;;;;5131577;28;20434;-83
2021/06/06 10:14:23;;;;;;;9.20;8.30;;;24.80;99.90;;;;;;5130916;28;20445;-83
2021/06/06 10:16:55;;;;;;;8.90;8.07;;;24.80;99.90;;;;;;5113793;28;20504;-83
2021/06/06 10:19:33;;;;;;;9.97;8.17;;;24.70;99.90;;;;;;5095839;28;20478;-83
2021/06/06 10:22:05;;;;;;;9.17;7.30;;;24.50;99.90;;;;;;5131649;28;20396;-83
2021/06/06 10:24:45;;;;;;;8.33;7.53;;;24.20;99.90;;;;;;5097066;28;20431;-82
2021/06/06 10:27:44;;;;;;;8.90;7.97;;;24.00;99.90;;;;;;5098448;28;20448;-83
2021/06/06 10:30:33;;;;;;;9.77;8.87;;;23.80;99.90;;;;;;5130726;28;20455;-84
2021/06/06 10:33:23;;;;;;;7.97;7.27;;;23.60;99.90;;;;;;5130937;28;20801;-83
2021/06/06 10:35:51;;;;;;;9.10;8.20;;;23.20;99.90;;;;;;5131383;28;20410;-83
2021/06/06 10:38:17;;;;;;;7.97;7.13;;;22.90;99.90;;;;;;5132257;28;20388;-83
2021/06/06 10:40:48;;;;;;;6.70;6.10;;;22.70;99.90;;;;;;5133017;28;20396;-84
2021/06/06 10:43:41;;;;;;;5.77;5.27;;;22.60;99.90;;;;;;5098097;28;20550;-84
2021/06/06 10:46:23;;;;;;;14.53;7.27;;;22.50;99.90;;;;;;5113452;28;20448;-83
2021/06/06 10:49:21;;;;;;;6.10;5.60;;;22.40;99.90;;;;;;5130231;28;20443;-84
2021/06/06 10:51:56;;;;;;;7.57;6.77;;;22.30;99.90;;;;;;5112339;28;20464;-84
2021/06/06 10:54:41;;;;;;;7.17;6.47;;;22.30;99.90;;;;;;5112678;28;20388;-84
2021/06/06 10:57:30;;;;;;;6.87;6.20;;;22.30;99.90;;;;;;5111821;28;20400;-83
2021/06/06 11:00:22;;;;;;;7.70;6.90;;;22.40;99.90;;;;;;5112339;28;20400;-83
2021/06/06 11:03:03;;;;;;;7.20;6.60;;;22.40;99.90;;;;;;5129934;28;20410;-83
2021/06/06 11:05:48;;;;;;;7.97;6.73;;;22.30;99.90;;;;;;5129729;28;20511;-83
2021/06/06 11:08:31;;;;;;;8.07;7.30;;;22.20;99.90;;;;;;5129400;28;20428;-83
2021/06/06 11:11:22;;;;;;;6.90;6.20;;;22.20;99.90;;;;;;5129840;28;20403;-83
2021/06/06 11:13:52;;;;;;;8.90;8.00;;;22.20;99.90;;;;;;5112138;28;20424;-84
2021/06/06 11:16:26;;;;;;;7.23;6.53;;;22.10;99.90;;;;;;5130262;28;20407;-84
2021/06/06 11:18:57;;;;;;;8.80;6.80;;;22.00;99.90;;;;;;5130759;28;20411;-83
2021/06/06 11:21:36;;;;;;;5.90;5.40;;;22.00;99.90;;;;;;5113344;28;20388;-84
2021/06/06 11:24:07;;;;;;;5.87;4.83;;;22.00;99.90;;;;;;5114580;28;20415;-84
2021/06/06 11:26:42;;;;;;;5.20;4.80;;;21.90;99.90;;;;;;5102393;28;20892;-83
2021/06/06 11:29:21;;;;;;;4.10;3.80;;;21.90;99.90;;;;;;5086007;28;20427;-83
2021/06/06 11:32:07;;;;;;;3.80;3.50;;;22.00;99.90;;;;;;5138235;27;20412;-83
2021/06/06 11:34:42;;;;;;;4.17;3.87;;;22.00;99.90;;;;;;5135536;28;20396;-84
2021/06/06 11:37:13;;;;;;;4.73;4.37;;;21.90;99.90;;;;;;5114928;28;20388;-83
2021/06/06 11:39:42;;;;;;;4.20;3.90;;;22.10;99.90;;;;;;5112903;28;20420;-83
2021/06/06 11:42:29;;;;;;;4.00;3.70;;;22.20;99.90;;;;;;5130681;28;20407;-82
2021/06/06 11:45:04;;;;;;;5.23;4.73;;;22.20;99.90;;;;;;5112951;28;20451;-82
2021/06/06 11:47:39;;;;;;;5.43;4.93;;;22.30;99.90;;;;;;5130064;28;20471;-82
2021/06/06 11:50:12;;;;;;;5.23;4.73;;;22.30;99.90;;;;;;5129245;28;20422;-83
2021/06/06 11:52:44;;;;;;;4.93;4.53;;;22.40;99.90;;;;;;5130816;28;20384;-83
2021/06/06 11:55:29;;;;;;;5.10;4.60;;;22.40;99.90;;;;;;5133253;28;20395;-81
2021/06/06 11:58:12;;;;;;;6.43;5.80;;;22.40;99.90;;;;;;5099708;28;20395;-82
2021/06/06 12:00:43;;;;;;;10.10;7.50;;;22.30;99.90;;;;;;5114016;28;20391;-84
2021/06/06 12:03:18;;;;;;;6.87;6.17;;;22.30;99.90;;;;;;5133456;28;20384;-83
2021/06/06 12:06:02;;;;;;;7.70;6.90;;;22.20;99.90;;;;;;5135845;28;20529;-83
2021/06/06 12:08:32;;;;;;;7.87;6.90;;;22.20;99.90;;;;;;5102494;28;20423;-83
2021/06/06 12:11:05;;;;;;;8.77;7.90;;;22.20;99.90;;;;;;5136462;28;20399;-82
2021/06/06 12:13:35;;;;;;;14.30;7.63;;;22.20;99.90;;;;;;5138118;28;20419;-83
2021/06/06 12:16:19;;;;;;;8.00;7.20;;;22.00;99.90;;;;;;5122032;28;20391;-82
2021/06/06 12:18:59;;;;;;;7.17;6.23;;;22.10;99.90;;;;;;5121971;28;20408;-82
2021/06/06 12:21:25;;;;;;;8.47;7.60;;;22.10;99.90;;;;;;5121702;28;20384;-81
2021/06/06 12:24:10;;;;;;;8.17;7.37;;;22.00;99.90;;;;;;5120827;28;20408;-82
2021/06/06 12:26:43;;;;;;;9.23;8.33;;;21.80;99.90;;;;;;5138199;28;20178;-81
2021/06/06 12:29:11;;;;;;;8.40;6.47;;;21.70;99.90;;;;;;5137641;28;20388;-82
2021/06/06 12:31:42;;;;;;;5.93;5.37;;;21.60;99.90;;;;;;5137351;28;20384;-83
2021/06/06 12:34:12;;;;;;;7.13;6.60;;;21.30;99.90;;;;;;5118477;28;20395;-83
2021/06/06 12:36:40;;;;;;;7.20;5.57;;;21.20;99.90;;;;;;5135421;28;20525;-83
2021/06/06 12:39:09;;;;;;;6.73;6.13;;;21.10;99.90;;;;;;5135827;28;20399;-83
2021/06/06 12:41:39;;;;;;;5.73;5.23;;;20.70;99.90;;;;;;5135905;28;20402;-83
2021/06/06 12:44:11;;;;;;;5.00;4.60;;;20.60;99.90;;;;;;5118339;28;20379;-84
2021/06/06 12:46:49;;;;;;;5.30;4.80;;;20.60;99.90;;;;;;5114515;28;20546;-84
2021/06/06 12:49:27;;;;;;;5.63;5.03;;;20.50;99.90;;;;;;5030194;28;2900338;-84
2021/06/06 12:51:53;;;;;;;5.27;4.77;;;20.10;99.90;;;;;;5133414;28;20421;-83
2021/06/06 12:54:25;;;;;;;4.77;4.37;;;20.10;99.90;;;;;;5136509;28;20493;-81
2021/06/06 12:56:52;;;;;;;5.73;5.23;;;20.30;99.90;;;;;;5133257;28;20177;-83
2021/06/06 12:59:28;;;;;;;6.20;5.70;;;20.40;99.90;;;;;;5133140;28;20483;-84
2021/06/06 13:02:18;;;;;;;6.33;5.67;;;20.40;99.90;;;;;;5133249;28;20415;-84
2021/06/06 13:04:58;;;;;;;5.40;5.00;;;20.60;99.90;;;;;;5133553;28;20422;-84
2021/06/06 13:07:29;;;;;;;5.70;5.10;;;20.60;99.90;;;;;;5098143;28;20434;-83